createdAt,value
2019-03-11T00:01:14.209Z,9.20
2019-03-11T00:06:18.395Z,9.30
2019-03-11T00:11:22.279Z,9.30
2019-03-11T00:16:27.020Z,9.20
2019-03-11T00:21:31.036Z,9.40
2019-03-11T00:26:35.551Z,9.30
2019-03-11T00:31:39.372Z,9.30
2019-03-11T00:36:43.719Z,9.50
2019-03-11T00:41:47.711Z,9.40
2019-03-11T00:46:51.811Z,9.40
2019-03-11T00:51:56.298Z,9.50
2019-03-11T00:57:00.220Z,9.30
2019-03-11T01:02:04.559Z,9.20
2019-03-11T01:07:08.424Z,9.30
2019-03-11T01:12:12.556Z,9.60
2019-03-11T01:17:16.476Z,9.30
2019-03-11T01:22:20.339Z,9.20
2019-03-11T01:27:24.756Z,9.30
2019-03-11T01:32:28.916Z,9.20
2019-03-11T01:37:33.051Z,9.30
2019-03-11T01:42:37.279Z,9.40
2019-03-11T01:47:41.587Z,9.20
2019-03-11T01:52:45.433Z,9.20
2019-03-11T01:57:49.579Z,9.40
2019-03-11T02:02:53.845Z,9.30
2019-03-11T02:07:57.792Z,9.20
2019-03-11T02:13:02.243Z,9.30
2019-03-11T02:18:06.239Z,9.30
2019-03-11T02:23:10.325Z,9.20
2019-03-11T02:28:14.368Z,9.50
2019-03-11T02:33:18.385Z,9.50
2019-03-11T02:38:22.661Z,9.20
2019-03-11T02:43:26.776Z,9.20
2019-03-11T02:48:30.894Z,9.40
2019-03-11T02:53:35.483Z,9.20
2019-03-11T02:58:39.371Z,9.20
2019-03-11T03:03:46.403Z,9.00
2019-03-11T03:08:50.516Z,9.20
2019-03-11T03:13:54.971Z,9.20
2019-03-11T03:18:58.914Z,9.10
2019-03-11T03:24:03.299Z,9.20
2019-03-11T03:29:07.547Z,8.90
2019-03-11T03:34:11.678Z,9.10
2019-03-11T03:39:15.626Z,8.90
2019-03-11T03:44:20.122Z,8.90
2019-03-11T03:49:24.303Z,9.00
2019-03-11T03:54:28.408Z,8.90
2019-03-11T03:59:32.308Z,8.90
2019-03-11T04:04:36.784Z,8.90
2019-03-11T04:09:41.161Z,8.90
2019-03-11T04:14:45.222Z,9.00
2019-03-11T04:19:49.344Z,8.80
2019-03-11T04:24:53.539Z,8.90
2019-03-11T04:29:57.819Z,9.10
2019-03-11T04:35:01.756Z,9.10
2019-03-11T04:40:06.459Z,8.90
2019-03-11T04:45:11.639Z,8.90
2019-03-11T04:50:15.856Z,8.90
2019-03-11T04:55:20.203Z,8.90
2019-03-11T05:00:26.127Z,9.10
2019-03-11T05:05:30.764Z,8.70
2019-03-11T05:10:35.068Z,8.90
2019-03-11T05:15:39.243Z,8.90
2019-03-11T05:20:43.483Z,8.90
2019-03-11T05:25:47.682Z,8.80
2019-03-11T05:30:51.895Z,8.90
2019-03-11T05:35:56.115Z,8.70
2019-03-11T05:41:00.173Z,8.60
2019-03-11T05:46:04.194Z,8.70
2019-03-11T05:51:08.092Z,8.80
2019-03-11T05:56:12.216Z,8.90
2019-03-11T06:01:16.263Z,8.90
2019-03-11T06:06:20.533Z,8.60
2019-03-11T06:11:24.741Z,8.70
2019-03-11T06:16:28.702Z,8.50
2019-03-11T06:21:44.419Z,8.70
2019-03-11T06:26:48.359Z,8.70
2019-03-11T06:31:52.252Z,8.70
2019-03-11T06:36:56.431Z,8.70
2019-03-11T06:42:00.616Z,8.60
2019-03-11T06:47:04.901Z,8.60
2019-03-11T06:52:09.094Z,8.60
2019-03-11T06:57:13.035Z,8.70
2019-03-11T07:02:17.490Z,8.70
2019-03-11T07:07:21.900Z,8.60
2019-03-11T07:12:26.100Z,8.70
2019-03-11T07:17:30.611Z,8.60
2019-03-11T07:22:34.731Z,8.60
2019-03-11T07:27:38.746Z,8.70
2019-03-11T07:32:43.261Z,8.60
2019-03-11T07:37:47.389Z,8.80
2019-03-11T07:42:52.015Z,8.70
2019-03-11T07:47:56.311Z,8.60
2019-03-11T07:53:00.484Z,8.70
2019-03-11T07:58:04.499Z,8.50
2019-03-11T08:03:08.768Z,8.60
2019-03-11T08:08:13.042Z,8.70
2019-03-11T08:13:17.203Z,8.50
2019-03-11T08:18:21.067Z,8.70
2019-03-11T08:23:25.539Z,8.60
2019-03-11T08:28:29.755Z,8.60
2019-03-11T08:33:34.160Z,8.70
2019-03-11T08:38:38.095Z,8.60
2019-03-11T08:43:42.385Z,8.50
2019-03-11T08:48:46.259Z,8.60
2019-03-11T08:53:50.119Z,8.80
2019-03-11T08:58:54.142Z,8.70
2019-03-11T09:03:58.635Z,8.60
2019-03-11T09:09:02.869Z,8.80
2019-03-11T09:14:07.125Z,8.70
2019-03-11T09:19:11.037Z,8.60
2019-03-11T09:24:19.264Z,8.70
2019-03-11T09:29:20.884Z,8.80
2019-03-11T09:34:24.897Z,8.70
2019-03-11T09:39:28.903Z,8.60
2019-03-11T09:44:33.096Z,8.80
2019-03-11T09:49:37.202Z,8.80
2019-03-11T09:54:41.343Z,8.70
2019-03-11T09:59:45.308Z,8.60
2019-03-11T10:04:49.432Z,8.70
2019-03-11T10:09:53.891Z,8.70
2019-03-11T10:14:58.095Z,8.80
2019-03-11T10:20:04.512Z,8.70
2019-03-11T10:25:08.702Z,8.70
2019-03-11T10:30:13.886Z,8.70
2019-03-11T10:35:33.535Z,8.60
2019-03-11T10:40:23.985Z,8.70
2019-03-11T10:45:31.674Z,8.60
2019-03-11T10:50:33.914Z,8.90
2019-03-11T10:55:37.933Z,8.80
2019-03-11T11:00:41.986Z,8.60
2019-03-11T11:05:46.324Z,8.90
2019-03-11T11:10:50.642Z,8.70
2019-03-11T11:15:54.647Z,8.70
2019-03-11T11:20:59.275Z,8.70
2019-03-11T11:26:04.187Z,8.60
2019-03-11T11:31:08.230Z,8.80
2019-03-11T11:36:12.255Z,8.80
2019-03-11T11:41:16.808Z,9.00
2019-03-11T11:46:21.123Z,9.00
2019-03-11T11:51:25.808Z,8.90
2019-03-11T11:56:30.209Z,8.90
2019-03-11T12:01:34.223Z,8.90
2019-03-11T12:06:38.475Z,8.80
2019-03-11T12:11:42.631Z,8.90
2019-03-11T12:16:46.651Z,8.80
2019-03-11T12:21:50.599Z,8.90
2019-03-11T12:26:54.985Z,8.80
2019-03-11T12:31:59.175Z,9.00
2019-03-11T12:37:03.432Z,8.90
2019-03-11T12:42:07.467Z,9.00
2019-03-11T12:47:11.413Z,8.90
2019-03-11T12:52:15.449Z,9.00
2019-03-11T12:57:19.664Z,8.90
2019-03-11T13:02:24.208Z,9.00
2019-03-11T13:07:28.909Z,9.10
2019-03-11T13:12:33.170Z,9.00
2019-03-11T13:17:37.597Z,9.00
2019-03-11T13:22:41.570Z,8.90
2019-03-11T13:27:45.897Z,8.90
2019-03-11T13:32:50.179Z,9.20
2019-03-11T13:37:54.247Z,8.90
2019-03-11T13:42:58.420Z,9.10
2019-03-11T13:48:02.942Z,8.90
2019-03-11T13:53:06.998Z,9.00
2019-03-11T13:58:11.215Z,9.20
2019-03-11T14:03:15.528Z,9.10
2019-03-11T14:08:19.571Z,9.10
2019-03-11T14:13:23.611Z,8.90
2019-03-11T14:18:27.880Z,9.10
2019-03-11T14:23:32.110Z,8.90
2019-03-11T14:28:36.910Z,9.00
2019-03-11T14:33:40.889Z,9.40
2019-03-11T14:38:45.243Z,9.00
2019-03-11T14:43:49.554Z,8.80
2019-03-11T14:48:53.411Z,9.00
2019-03-11T14:53:57.560Z,8.90
2019-03-11T14:59:01.640Z,8.90
2019-03-11T15:04:05.716Z,9.20
2019-03-11T15:09:10.036Z,8.90
2019-03-11T15:14:14.078Z,9.20
2019-03-11T15:19:18.287Z,8.90
2019-03-11T15:24:22.619Z,9.20
2019-03-11T15:29:26.797Z,8.90
2019-03-11T15:34:31.004Z,9.20
2019-03-11T15:39:35.168Z,8.90
2019-03-11T15:44:39.291Z,9.40
2019-03-11T15:49:43.625Z,9.20
2019-03-11T15:54:47.947Z,9.10
2019-03-11T15:59:52.091Z,9.00
2019-03-11T16:04:56.456Z,9.10
2019-03-11T16:10:00.714Z,9.30
2019-03-11T16:15:05.437Z,9.10
2019-03-11T16:20:11.355Z,9.00
2019-03-11T16:25:15.397Z,9.40
2019-03-11T16:30:20.215Z,9.00
2019-03-11T16:35:25.183Z,9.10
2019-03-11T16:40:29.446Z,9.00
2019-03-11T16:45:33.575Z,9.50
2019-03-11T16:50:37.510Z,8.60
2019-03-11T16:55:43.191Z,9.60
2019-03-11T17:00:47.829Z,9.30
2019-03-11T17:05:52.197Z,9.30
2019-03-11T17:10:56.282Z,9.10
2019-03-11T17:16:00.554Z,9.30
2019-03-11T17:21:07.704Z,9.20
2019-03-11T17:26:11.668Z,9.10
2019-03-11T17:31:16.191Z,9.30
2019-03-11T17:36:20.454Z,9.10
2019-03-11T17:41:24.754Z,9.20
2019-03-11T17:46:28.963Z,9.10
2019-03-11T17:51:33.002Z,9.00
2019-03-11T17:56:37.286Z,8.80
2019-03-11T18:01:41.246Z,9.00
2019-03-11T18:06:45.759Z,9.00
2019-03-11T18:11:49.779Z,8.90
2019-03-11T18:16:53.976Z,9.00
2019-03-11T18:21:58.335Z,9.00
2019-03-11T18:27:02.259Z,8.90
2019-03-11T18:32:06.512Z,8.90
2019-03-11T18:37:10.835Z,9.00
2019-03-11T18:42:24.896Z,9.10
2019-03-11T18:47:21.325Z,8.90
2019-03-11T18:52:25.647Z,8.90
2019-03-11T18:57:29.891Z,9.00
2019-03-11T19:02:34.153Z,8.90
2019-03-11T19:07:38.303Z,8.90
2019-03-11T19:12:42.332Z,8.90
2019-03-11T19:17:46.429Z,9.00
2019-03-11T19:22:50.635Z,8.90
2019-03-11T19:27:54.846Z,9.00
2019-03-11T19:32:58.782Z,8.90
2019-03-11T19:38:02.744Z,8.80
2019-03-11T19:43:07.272Z,8.90
2019-03-11T19:48:11.350Z,9.00
2019-03-11T19:53:15.633Z,8.80
2019-03-11T19:58:19.717Z,8.90
2019-03-11T20:03:29.228Z,8.90
2019-03-11T20:08:29.466Z,9.20
2019-03-11T20:13:33.442Z,9.10
2019-03-11T20:18:39.385Z,9.20
2019-03-11T20:23:43.462Z,9.00
2019-03-11T20:28:47.914Z,8.90
2019-03-11T20:33:51.964Z,8.80
2019-03-11T20:38:55.883Z,9.10
2019-03-11T20:44:00.121Z,8.90
2019-03-11T20:49:04.712Z,8.90
2019-03-11T20:54:08.747Z,8.90
2019-03-11T20:59:12.609Z,8.90
2019-03-11T21:04:16.584Z,9.00
2019-03-11T21:09:20.582Z,9.00
2019-03-11T21:14:24.624Z,8.90
2019-03-11T21:19:28.919Z,9.00
2019-03-11T21:24:33.507Z,9.10
2019-03-11T21:29:38.831Z,9.10
2019-03-11T21:34:43.701Z,8.90
2019-03-11T21:39:48.228Z,8.90
2019-03-11T21:44:52.463Z,9.00
2019-03-11T21:49:56.667Z,8.90
2019-03-11T21:55:00.720Z,9.00
2019-03-11T22:00:05.192Z,9.00
2019-03-11T22:05:09.587Z,8.90
2019-03-11T22:10:13.766Z,9.00
2019-03-11T22:15:18.026Z,9.00
2019-03-11T22:20:22.084Z,8.90
2019-03-11T22:25:26.531Z,8.80
2019-03-11T22:30:30.818Z,8.90
2019-03-11T22:35:34.886Z,8.90
2019-03-11T22:40:38.848Z,8.90
2019-03-11T22:45:43.103Z,9.00
2019-03-11T22:50:47.550Z,8.90
2019-03-11T22:55:51.611Z,8.90
2019-03-11T23:01:04.339Z,8.90
2019-03-11T23:06:08.700Z,8.90
2019-03-11T23:11:12.913Z,8.90
2019-03-11T23:16:17.112Z,8.90
2019-03-11T23:21:21.387Z,8.90
2019-03-11T23:26:25.644Z,8.80
2019-03-11T23:31:29.899Z,8.90
2019-03-11T23:36:34.196Z,8.90
2019-03-11T23:41:38.203Z,8.90
2019-03-11T23:46:42.160Z,8.60
2019-03-11T23:51:46.371Z,8.90
2019-03-11T23:56:50.580Z,8.70
